Time;durP1;ratioP1;P1;durP2;ratioP2;P2;SDS_P1;SDS_P2;PMS_P1;PMS_P2;Temp;Humidity;BMP_temperature;BMP_pressure;BME280_temperature;BME280_humidity;BME280_pressure;Samples;Min_cycle;Max_cycle;Signal;HPM_P1;HPM_P2
2023/06/08 00:02:13;;;;;;;13.13;5.88;;;;;;;;;;5049583;28;20048;-73
2023/06/08 00:04:40;;;;;;;18.52;9.40;;;;;;;;;;5050146;28;20075;-72
2023/06/08 00:07:10;;;;;;;14.20;6.70;;;;;;;;;;5049823;28;20076;-71
2023/06/08 00:09:37;;;;;;;;;;;;;;;;;;5049464;28;20025;-72
2023/06/08 00:12:03;;;;;;;10.70;5.47;;;;;;;;;;5050340;28;20160;-73
2023/06/08 00:14:29;;;;;;;16.90;7.13;;;;;;;;;;5031972;28;20455;-72
2023/06/08 00:16:55;;;;;;;19.65;6.70;;;;;;;;;;5031229;28;20025;-73
2023/06/08 00:19:22;;;;;;;14.20;7.47;;;;;;;;;;5050307;28;20025;-73
2023/06/08 00:21:49;;;;;;;25.25;9.73;;;;;;;;;;5049895;28;20473;-74
2023/06/08 00:24:19;;;;;;;9.65;4.90;;;;;;;;;;5050086;28;20025;-73
2023/06/08 00:26:45;;;;;;;20.30;9.35;;;;;;;;;;5049854;28;20479;-73
2023/06/08 00:29:11;;;;;;;17.33;9.30;;;;;;;;;;5049778;28;20143;-73
2023/06/08 00:31:38;;;;;;;18.75;8.07;;;;;;;;;;5049072;28;20037;-72
2023/06/08 00:34:04;;;;;;;18.15;10.10;;;;;;;;;;5049245;28;20086;-73
2023/06/08 00:36:30;;;;;;;15.80;8.95;;;;;;;;;;5049011;28;20709;-73
2023/06/08 00:38:56;;;;;;;18.88;9.25;;;;;;;;;;5049325;28;20031;-71
2023/06/08 00:41:22;;;;;;;25.40;10.32;;;;;;;;;;5049627;28;20025;-73
2023/06/08 00:43:48;;;;;;;23.10;11.40;;;;;;;;;;5031287;28;20489;-72
2023/06/08 00:46:15;;;;;;;21.05;8.30;;;;;;;;;;5048826;28;20025;-73
2023/06/08 00:48:41;;;;;;;17.20;8.95;;;;;;;;;;5049463;28;20032;-72
2023/06/08 00:51:08;;;;;;;14.55;5.55;;;;;;;;;;5049147;28;20163;-72
2023/06/08 00:53:36;;;;;;;21.52;9.45;;;;;;;;;;5049774;28;20100;-73
2023/06/08 00:56:03;;;;;;;22.17;10.88;;;;;;;;;;5048441;28;20072;-73
2023/06/08 00:58:29;;;;;;;18.02;7.00;;;;;;;;;;5031412;28;20056;-72
2023/06/08 01:01:04;;;;;;;15.18;8.27;;;;;;;;;;5048757;28;20025;-72
2023/06/08 01:03:35;;;;;;;15.73;7.45;;;;;;;;;;5041648;28;20147;-73
2023/06/08 01:06:08;;;;;;;19.70;9.70;;;;;;;;;;5049384;28;20146;-72
2023/06/08 01:08:49;;;;;;;17.83;8.60;;;;;;;;;;5048472;28;20083;-72
2023/06/08 01:11:18;;;;;;;21.08;8.02;;;;;;;;;;5049491;28;20396;-72
2023/06/08 01:13:47;;;;;;;13.75;7.07;;;;;;;;;;5052965;28;20043;-73
2023/06/08 01:16:15;;;;;;;15.45;9.00;;;;;;;;;;5053848;28;20048;-73
2023/06/08 01:18:42;;;;;;;20.80;11.10;;;;;;;;;;5053716;28;20056;-73
2023/06/08 01:21:28;;;;;;;18.55;9.18;;;;;;;;;;5053178;28;20393;-71
2023/06/08 01:24:10;;;;;;;16.73;8.38;;;;;;;;;;5053444;28;20029;-73
2023/06/08 01:26:37;;;;;;;17.98;7.95;;;;;;;;;;5049193;28;20463;-72
2023/06/08 01:29:05;;;;;;;23.90;11.18;;;;;;;;;;5043327;28;20349;-73
2023/06/08 01:31:32;;;;;;;15.20;6.93;;;;;;;;;;5052100;28;20024;-72
2023/06/08 01:33:58;;;;;;;16.02;9.15;;;;;;;;;;5053531;28;20025;-72
2023/06/08 01:36:53;;;;;;;20.25;10.40;;;;;;;;;;5053122;28;20033;-73
2023/06/08 01:39:38;;;;;;;22.10;11.75;;;;;;;;;;5038448;28;20049;-73
2023/06/08 01:42:06;;;;;;;19.42;9.65;;;;;;;;;;5052133;28;20029;-73
2023/06/08 01:44:36;;;;;;;18.15;9.73;;;;;;;;;;5052704;28;20027;-73
2023/06/08 01:47:04;;;;;;;16.27;10.13;;;;;;;;;;5052487;28;20048;-72
2023/06/08 01:49:30;;;;;;;21.95;10.80;;;;;;;;;;5052174;28;20045;-71
2023/06/08 01:51:57;;;;;;;16.60;8.13;;;;;;;;;;5052369;28;20110;-72
2023/06/08 01:54:23;;;;;;;21.83;10.80;;;;;;;;;;5052041;28;20067;-72
2023/06/08 01:56:49;;;;;;;16.33;9.93;;;;;;;;;;5051982;28;20052;-72
2023/06/08 01:59:15;;;;;;;19.35;10.52;;;;;;;;;;5052434;28;20032;-72
2023/06/08 02:01:41;;;;;;;19.63;11.50;;;;;;;;;;5051714;28;20032;-72
2023/06/08 02:04:07;;;;;;;15.60;7.93;;;;;;;;;;5051452;28;20036;-72
2023/06/08 02:06:33;;;;;;;21.45;8.43;;;;;;;;;;5052110;28;20033;-73
2023/06/08 02:09:00;;;;;;;23.95;12.35;;;;;;;;;;5052240;28;20032;-73
2023/06/08 02:11:26;;;;;;;17.13;8.32;;;;;;;;;;5051999;28;20021;-73
2023/06/08 02:13:52;;;;;;;18.17;11.07;;;;;;;;;;5052256;28;20021;-73
2023/06/08 02:16:18;;;;;;;16.25;7.53;;;;;;;;;;5052525;28;20037;-72
2023/06/08 02:18:45;;;;;;;18.27;9.40;;;;;;;;;;5052229;28;20070;-73
2023/06/08 02:21:11;;;;;;;15.52;5.32;;;;;;;;;;5052075;28;20024;-72
2023/06/08 02:23:38;;;;;;;17.60;9.07;;;;;;;;;;5052732;28;20090;-71
2023/06/08 02:26:05;;;;;;;18.58;10.98;;;;;;;;;;5053700;28;20032;-72
2023/06/08 02:28:31;;;;;;;19.83;10.43;;;;;;;;;;5052620;28;20134;-72
2023/06/08 02:30:57;;;;;;;15.48;7.82;;;;;;;;;;5052212;28;20108;-72
2023/06/08 02:33:23;;;;;;;16.50;7.95;;;;;;;;;;5051256;28;20025;-73
2023/06/08 02:35:49;;;;;;;15.95;9.75;;;;;;;;;;5051688;28;20044;-71
2023/06/08 02:38:16;;;;;;;16.90;8.07;;;;;;;;;;5051836;28;20036;-72
2023/06/08 02:40:42;;;;;;;18.75;10.82;;;;;;;;;;5051746;28;20036;-71
2023/06/08 02:43:11;;;;;;;12.82;8.02;;;;;;;;;;5051125;28;20021;-72
2023/06/08 02:45:39;;;;;;;13.75;8.73;;;;;;;;;;5050704;28;20791;-71
2023/06/08 02:48:05;;;;;;;12.45;6.18;;;;;;;;;;5051376;28;20024;-72
2023/06/08 02:50:31;;;;;;;20.55;11.23;;;;;;;;;;5050548;28;20045;-71
2023/06/08 02:52:57;;;;;;;20.88;10.48;;;;;;;;;;5050896;28;20029;-72
2023/06/08 02:55:23;;;;;;;22.05;12.02;;;;;;;;;;5050816;28;20046;-73
2023/06/08 02:57:51;;;;;;;17.33;10.30;;;;;;;;;;5050936;28;20044;-72
2023/06/08 03:00:20;;;;;;;15.80;8.85;;;;;;;;;;5051352;28;20394;-72
2023/06/08 03:02:46;;;;;;;14.75;8.38;;;;;;;;;;5051295;28;20085;-71
2023/06/08 03:05:13;;;;;;;19.52;11.90;;;;;;;;;;5033586;28;20056;-72
2023/06/08 03:07:42;;;;;;;17.75;10.75;;;;;;;;;;5051364;28;20063;-73
2023/06/08 03:10:08;;;;;;;16.88;11.43;;;;;;;;;;5050097;28;20021;-71
2023/06/08 03:12:34;;;;;;;17.17;9.45;;;;;;;;;;5051192;28;20429;-72
2023/06/08 03:15:00;;;;;;;17.67;8.48;;;;;;;;;;5037297;28;20033;-72
2023/06/08 03:17:27;;;;;;;20.05;9.63;;;;;;;;;;5050932;28;20025;-72
2023/06/08 03:19:53;;;;;;;15.57;8.55;;;;;;;;;;5050998;28;20223;-71
2023/06/08 03:22:24;;;;;;;15.68;6.45;;;;;;;;;;5050855;28;20063;-74
2023/06/08 03:24:50;;;;;;;24.77;13.98;;;;;;;;;;5050482;28;20025;-72
2023/06/08 03:27:16;;;;;;;16.13;8.73;;;;;;;;;;5051069;28;20445;-74
2023/06/08 03:29:43;;;;;;;25.60;13.88;;;;;;;;;;5050470;28;20060;-71
2023/06/08 03:32:09;;;;;;;22.52;12.30;;;;;;;;;;5050569;28;20471;-72
2023/06/08 03:34:37;;;;;;;14.95;7.75;;;;;;;;;;5050118;28;20028;-72
2023/06/08 03:37:03;;;;;;;17.17;10.70;;;;;;;;;;5049737;28;20029;-73
2023/06/08 03:39:29;;;;;;;26.70;15.55;;;;;;;;;;5050524;28;20059;-73
2023/06/08 03:41:55;;;;;;;29.48;15.27;;;;;;;;;;5050228;28;20028;-73
2023/06/08 03:44:21;;;;;;;23.25;13.60;;;;;;;;;;5050508;28;20032;-72
2023/06/08 03:46:47;;;;;;;17.08;8.73;;;;;;;;;;5049440;28;20086;-73
2023/06/08 03:49:13;;;;;;;20.67;11.68;;;;;;;;;;5050167;28;20116;-71
2023/06/08 03:51:40;;;;;;;29.80;15.25;;;;;;;;;;5049896;28;20025;-71
2023/06/08 03:54:06;;;;;;;16.20;10.60;;;;;;;;;;5036810;28;20439;-73
2023/06/08 03:56:32;;;;;;;18.15;10.93;;;;;;;;;;5049816;28;20033;-71
2023/06/08 03:58:58;;;;;;;29.55;14.75;;;;;;;;;;5050183;28;20032;-72
2023/06/08 04:01:27;;;;;;;19.35;12.38;;;;;;;;;;5050346;28;20478;-72
2023/06/08 04:03:52;;;;;;;20.20;12.80;;;;;;;;;;5036191;28;20102;-73
2023/06/08 04:06:18;;;;;;;17.50;10.25;;;;;;;;;;5050368;28;20084;-71
2023/06/08 04:08:45;;;;;;;20.65;13.00;;;;;;;;;;5050053;28;20029;-71
2023/06/08 04:11:13;;;;;;;20.95;10.50;;;;;;;;;;5049713;28;20025;-73
2023/06/08 04:13:40;;;;;;;22.85;13.07;;;;;;;;;;5049882;28;20021;-72
2023/06/08 04:16:10;;;;;;;18.05;9.55;;;;;;;;;;5044946;28;20752;-72
2023/06/08 04:18:36;;;;;;;20.83;11.83;;;;;;;;;;5049874;28;20032;-71
2023/06/08 04:21:05;;;;;;;19.52;12.80;;;;;;;;;;5049617;28;20634;-72
2023/06/08 04:23:31;;;;;;;23.15;14.10;;;;;;;;;;5049220;28;20037;-71
2023/06/08 04:25:57;;;;;;;20.05;13.50;;;;;;;;;;5049039;28;20082;-72
2023/06/08 04:28:23;;;;;;;17.83;9.25;;;;;;;;;;5049514;28;20040;-70
2023/06/08 04:30:49;;;;;;;21.67;13.82;;;;;;;;;;5049160;28;20365;-70
2023/06/08 04:33:16;;;;;;;27.65;16.15;;;;;;;;;;5036382;28;20032;-71
2023/06/08 04:35:42;;;;;;;20.10;12.25;;;;;;;;;;5049105;28;20064;-71
2023/06/08 04:38:15;;;;;;;19.13;13.15;;;;;;;;;;5049250;28;20021;-71
2023/06/08 04:40:45;;;;;;;23.65;14.18;;;;;;;;;;5049138;28;20033;-72
2023/06/08 04:43:13;;;;;;;23.73;13.77;;;;;;;;;;5048770;28;20120;-72
2023/06/08 04:45:41;;;;;;;26.77;12.80;;;;;;;;;;5034011;28;20750;-72
2023/06/08 04:48:09;;;;;;;19.08;11.20;;;;;;;;;;5049166;28;20478;-72
2023/06/08 04:50:37;;;;;;;26.58;15.55;;;;;;;;;;5049035;28;20041;-72
2023/06/08 04:53:03;;;;;;;12.90;6.40;;;;;;;;;;5049256;28;20127;-73
2023/06/08 04:55:29;;;;;;;19.65;14.57;;;;;;;;;;5031614;28;20526;-71
2023/06/08 04:57:55;;;;;;;17.25;10.95;;;;;;;;;;5049080;28;20029;-72
2023/06/08 05:00:21;;;;;;;25.23;14.73;;;;;;;;;;5032030;28;20483;-71
2023/06/08 05:02:47;;;;;;;25.00;17.33;;;;;;;;;;5048799;28;20021;-72
2023/06/08 05:05:13;;;;;;;25.55;16.63;;;;;;;;;;5049668;28;20056;-72
2023/06/08 05:07:39;;;;;;;18.08;12.00;;;;;;;;;;5039945;28;20153;-72
2023/06/08 05:10:06;;;;;;;27.10;15.23;;;;;;;;;;5048845;28;20463;-72
2023/06/08 05:12:32;;;;;;;21.48;13.10;;;;;;;;;;5048874;28;20430;-72
2023/06/08 05:14:58;;;;;;;33.78;18.23;;;;;;;;;;5048703;28;20032;-72
2023/06/08 05:17:24;;;;;;;19.13;11.45;;;;;;;;;;5049087;28;20060;-72
2023/06/08 05:19:51;;;;;;;22.08;14.52;;;;;;;;;;5030655;28;20025;-72
2023/06/08 05:22:17;;;;;;;18.73;11.50;;;;;;;;;;5049298;28;20387;-73
2023/06/08 05:24:43;;;;;;;24.75;16.40;;;;;;;;;;5048936;28;20028;-72
2023/06/08 05:27:09;;;;;;;25.75;14.73;;;;;;;;;;5048617;28;20032;-73
2023/06/08 05:29:35;;;;;;;27.88;15.23;;;;;;;;;;5048792;28;20041;-72
2023/06/08 05:32:01;;;;;;;18.65;9.48;;;;;;;;;;5048604;28;20027;-73
2023/06/08 05:34:28;;;;;;;23.95;12.30;;;;;;;;;;5047914;28;20033;-72
2023/06/08 05:36:54;;;;;;;17.80;9.77;;;;;;;;;;5048421;28;20038;-72
2023/06/08 05:39:20;;;;;;;16.60;7.05;;;;;;;;;;5048391;28;20083;-73
2023/06/08 05:41:47;;;;;;;21.33;14.10;;;;;;;;;;5047652;28;20052;-72
2023/06/08 05:44:13;;;;;;;15.65;9.95;;;;;;;;;;5041310;28;20037;-73
2023/06/08 05:46:39;;;;;;;15.98;8.75;;;;;;;;;;5041486;28;20032;-73
2023/06/08 05:49:05;;;;;;;23.85;13.90;;;;;;;;;;5044589;28;20029;-72
2023/06/08 05:51:32;;;;;;;20.30;8.15;;;;;;;;;;5038567;28;20032;-73
2023/06/08 05:53:57;;;;;;;11.20;5.40;;;;;;;;;;5048557;28;20026;-73
2023/06/08 05:56:23;;;;;;;11.32;6.03;;;;;;;;;;5048930;28;20044;-71
2023/06/08 05:58:49;;;;;;;20.45;12.55;;;;;;;;;;5048406;28;20033;-73
2023/06/08 06:01:16;;;;;;;16.08;10.95;;;;;;;;;;5051329;28;20037;-73
2023/06/08 06:03:43;;;;;;;14.98;10.73;;;;;;;;;;5051682;28;20403;-73
2023/06/08 06:06:10;;;;;;;14.70;9.27;;;;;;;;;;5051035;28;20021;-73
2023/06/08 06:08:36;;;;;;;20.60;11.95;;;;;;;;;;5052032;28;20029;-72
2023/06/08 06:11:02;;;;;;;15.57;8.98;;;;;;;;;;5051031;28;20294;-72
2023/06/08 06:13:31;;;;;;;19.42;11.93;;;;;;;;;;5051637;28;20025;-73
2023/06/08 06:15:57;;;;;;;17.33;12.00;;;;;;;;;;5052264;28;20045;-73
2023/06/08 06:18:23;;;;;;;15.80;11.35;;;;;;;;;;5051577;28;20554;-72
2023/06/08 06:20:50;;;;;;;10.25;4.72;;;;;;;;;;5051593;28;20029;-73
2023/06/08 06:23:16;;;;;;;17.05;9.32;;;;;;;;;;5051766;28;20079;-73
2023/06/08 06:25:42;;;;;;;14.65;7.95;;;;;;;;;;5042422;28;20029;-74
2023/06/08 06:28:08;;;;;;;15.75;7.45;;;;;;;;;;5052683;28;20036;-72
2023/06/08 06:30:34;;;;;;;15.00;9.48;;;;;;;;;;5051767;28;20037;-73
2023/06/08 06:33:00;;;;;;;16.20;10.15;;;;;;;;;;5050653;28;20544;-74
2023/06/08 06:35:26;;;;;;;20.73;10.75;;;;;;;;;;5051904;28;20106;-74
2023/06/08 06:37:54;;;;;;;17.83;9.60;;;;;;;;;;5042987;28;20044;-74
2023/06/08 06:40:20;;;;;;;19.17;11.20;;;;;;;;;;5040321;28;20032;-73
2023/06/08 06:42:46;;;;;;;15.75;5.80;;;;;;;;;;5041445;28;20106;-73
2023/06/08 06:45:13;;;;;;;15.30;8.35;;;;;;;;;;5042931;28;20515;-73
2023/06/08 06:47:39;;;;;;;20.92;12.73;;;;;;;;;;5039330;28;20041;-73
2023/06/08 06:50:06;;;;;;;14.70;9.27;;;;;;;;;;5039452;28;20088;-72
2023/06/08 06:52:32;;;;;;;16.58;7.00;;;;;;;;;;5043183;28;20099;-74
2023/06/08 06:54:59;;;;;;;15.18;8.27;;;;;;;;;;5049696;28;20108;-73
2023/06/08 06:57:25;;;;;;;17.35;8.05;;;;;;;;;;5047322;28;20033;-74
2023/06/08 06:59:51;;;;;;;19.05;9.98;;;;;;;;;;5049679;28;20032;-74
2023/06/08 07:02:18;;;;;;;14.20;7.18;;;;;;;;;;5041969;28;20025;-73
2023/06/08 07:04:44;;;;;;;13.25;7.05;;;;;;;;;;5040238;28;20052;-73
2023/06/08 07:07:10;;;;;;;14.88;9.82;;;;;;;;;;5044425;28;20033;-73
2023/06/08 07:09:36;;;;;;;16.40;9.18;;;;;;;;;;5048625;28;20033;-74
2023/06/08 07:12:02;;;;;;;14.50;9.82;;;;;;;;;;5048850;28;20029;-74
2023/06/08 07:14:28;;;;;;;11.82;6.40;;;;;;;;;;5044918;28;20072;-74
2023/06/08 07:16:54;;;;;;;11.73;6.43;;;;;;;;;;5050966;28;20037;-74
2023/06/08 07:19:20;;;;;;;10.75;5.20;;;;;;;;;;5051125;28;20032;-74
2023/06/08 07:21:46;;;;;;;11.13;4.50;;;;;;;;;;5049825;28;20041;-74
2023/06/08 07:24:12;;;;;;;17.80;9.27;;;;;;;;;;5046141;28;20059;-73
2023/06/08 07:26:38;;;;;;;9.15;4.65;;;;;;;;;;5043937;28;20025;-73
2023/06/08 07:29:04;;;;;;;7.13;3.85;;;;;;;;;;5045527;28;20104;-73
2023/06/08 07:31:31;;;;;;;11.73;5.18;;;;;;;;;;5050149;28;20021;-74
2023/06/08 07:33:57;;;;;;;8.77;4.75;;;;;;;;;;5050528;28;20111;-72
2023/06/08 07:36:24;;;;;;;8.13;4.10;;;;;;;;;;5050548;28;20554;-73
2023/06/08 07:38:50;;;;;;;13.43;5.40;;;;;;;;;;5050190;28;20059;-74
2023/06/08 07:41:17;;;;;;;8.13;4.55;;;;;;;;;;5050625;28;20025;-73
2023/06/08 07:43:43;;;;;;;17.70;7.97;;;;;;;;;;5050412;28;20078;-73
2023/06/08 07:46:09;;;;;;;10.85;5.97;;;;;;;;;;5045126;28;20025;-72
2023/06/08 07:48:35;;;;;;;11.38;5.65;;;;;;;;;;5050541;28;20642;-73
2023/06/08 07:51:01;;;;;;;12.20;5.28;;;;;;;;;;5049845;28;20045;-74
2023/06/08 07:53:34;;;;;;;10.55;5.63;;;;;;;;;;5049904;28;20025;-73
2023/06/08 07:56:01;;;;;;;8.75;4.97;;;;;;;;;;5031966;28;20033;-74
2023/06/08 07:58:26;;;;;;;10.27;4.45;;;;;;;;;;5050081;28;20121;-74
2023/06/08 08:00:55;;;;;;;11.88;5.60;;;;;;;;;;5049681;28;20104;-74
2023/06/08 08:03:21;;;;;;;11.88;5.80;;;;;;;;;;5050224;28;20025;-74
2023/06/08 08:05:49;;;;;;;11.43;5.13;;;;;;;;;;5049600;28;20455;-75
2023/06/08 08:08:15;;;;;;;9.70;4.72;;;;;;;;;;5050109;28;20029;-74
2023/06/08 08:10:41;;;;;;;10.27;5.05;;;;;;;;;;5049744;28;20128;-74
2023/06/08 08:13:08;;;;;;;14.35;7.68;;;;;;;;;;5049326;28;20108;-74
2023/06/08 08:15:34;;;;;;;11.02;5.82;;;;;;;;;;5038354;28;20056;-73
2023/06/08 08:18:00;;;;;;;13.00;6.90;;;;;;;;;;5050036;28;20442;-72
2023/06/08 08:20:26;;;;;;;11.98;6.18;;;;;;;;;;5048810;28;20542;-73
2023/06/08 08:22:52;;;;;;;12.63;5.88;;;;;;;;;;5049306;28;20025;-73
2023/06/08 08:25:18;;;;;;;10.57;4.45;;;;;;;;;;5049440;28;20028;-73
2023/06/08 08:27:44;;;;;;;9.38;5.00;;;;;;;;;;5049834;28;20051;-73
2023/06/08 08:30:11;;;;;;;11.02;5.00;;;;;;;;;;5049648;28;20040;-73
2023/06/08 08:32:37;;;;;;;10.80;4.82;;;;;;;;;;5049054;28;20039;-73
2023/06/08 08:35:03;;;;;;;11.40;5.82;;;;;;;;;;5049409;28;20033;-73
2023/06/08 08:37:29;;;;;;;10.30;5.00;;;;;;;;;;5049433;28;20124;-73
2023/06/08 08:39:55;;;;;;;15.40;7.65;;;;;;;;;;5049208;28;20111;-73
2023/06/08 08:42:28;;;;;;;14.00;6.55;;;;;;;;;;5049194;28;20531;-73
2023/06/08 08:44:55;;;;;;;11.13;4.70;;;;;;;;;;5049493;28;20037;-73
2023/06/08 08:47:26;;;;;;;13.20;8.27;;;;;;;;;;5036897;28;20021;-73
2023/06/08 08:49:56;;;;;;;12.82;6.45;;;;;;;;;;5049365;28;20064;-74
2023/06/08 08:52:24;;;;;;;13.07;6.25;;;;;;;;;;5049605;28;20071;-74
2023/06/08 08:54:55;;;;;;;11.98;6.05;;;;;;;;;;5047663;28;20116;-75
2023/06/08 08:57:21;;;;;;;11.38;5.68;;;;;;;;;;5049428;28;20036;-74
2023/06/08 08:59:47;;;;;;;11.27;5.22;;;;;;;;;;5048724;28;20064;-73
2023/06/08 09:02:13;;;;;;;9.95;4.78;;;;;;;;;;5049265;28;20025;-73
2023/06/08 09:04:39;;;;;;;17.17;8.98;;;;;;;;;;5049198;28;20021;-73
2023/06/08 09:07:06;;;;;;;15.02;6.35;;;;;;;;;;5048646;28;20110;-74
2023/06/08 09:09:32;;;;;;;8.65;4.25;;;;;;;;;;5047492;28;20039;-73
2023/06/08 09:12:00;;;;;;;9.25;4.60;;;;;;;;;;5044239;28;20108;-74
2023/06/08 09:14:27;;;;;;;13.95;6.30;;;;;;;;;;5048774;28;20108;-74
2023/06/08 09:16:53;;;;;;;10.55;5.35;;;;;;;;;;5049159;28;20437;-72
2023/06/08 09:19:19;;;;;;;14.10;9.18;;;;;;;;;;5048907;28;20021;-73
2023/06/08 09:21:46;;;;;;;10.35;5.18;;;;;;;;;;5048255;28;20932;-72
2023/06/08 09:24:16;;;;;;;14.50;4.53;;;;;;;;;;5048879;28;20079;-74
2023/06/08 09:26:46;;;;;;;9.98;4.80;;;;;;;;;;5048954;28;20029;-74
2023/06/08 09:29:12;;;;;;;;;;;;;;;;;;5049957;28;20025;-74
2023/06/08 09:31:49;;;;;;;15.40;8.00;;;;;;;;;;5048715;28;19961;-73
2023/06/08 09:34:15;;;;;;;13.40;5.07;;;;;;;;;;5038226;28;20454;-73
2023/06/08 09:36:43;;;;;;;15.25;8.52;;;;;;;;;;5050661;28;20095;-73
2023/06/08 09:39:09;;;;;;;10.10;4.80;;;;;;;;;;5052934;28;20535;-74
2023/06/08 09:41:38;;;;;;;10.93;5.72;;;;;;;;;;5052592;28;20121;-73
2023/06/08 09:44:19;;;;;;;17.30;7.28;;;;;;;;;;5051603;28;20032;-73
2023/06/08 09:46:45;;;;;;;8.82;5.07;;;;;;;;;;5062616;28;20372;-72
2023/06/08 09:49:13;;;;;;;12.75;5.47;;;;;;;;;;5052782;28;20047;-74
2023/06/08 09:51:41;;;;;;;13.13;4.82;;;;;;;;;;5052130;28;20036;-73
2023/06/08 09:54:08;;;;;;;15.35;6.97;;;;;;;;;;5052428;28;20075;-73
2023/06/08 09:56:35;;;;;;;8.32;3.90;;;;;;;;;;5052192;28;20106;-74
2023/06/08 09:59:03;;;;;;;10.88;4.72;;;;;;;;;;5052572;28;20024;-73
2023/06/08 10:01:29;;;;;;;8.93;3.65;;;;;;;;;;5051822;28;20031;-74
2023/06/08 10:03:58;;;;;;;8.85;4.03;;;;;;;;;;5052588;28;20120;-74
2023/06/08 10:06:25;;;;;;;13.80;5.97;;;;;;;;;;5050510;28;20517;-75
2023/06/08 10:08:52;;;;;;;9.93;5.22;;;;;;;;;;5052223;28;20116;-74
2023/06/08 10:11:18;;;;;;;10.23;4.45;;;;;;;;;;5052379;28;20031;-73
2023/06/08 10:13:45;;;;;;;6.60;3.53;;;;;;;;;;5052223;28;20079;-74
2023/06/08 10:16:11;;;;;;;14.02;5.30;;;;;;;;;;5038516;28;20043;-74
2023/06/08 10:18:38;;;;;;;10.52;5.30;;;;;;;;;;5051882;28;20638;-73
2023/06/08 10:21:05;;;;;;;12.07;6.75;;;;;;;;;;5048499;28;20509;-74
2023/06/08 10:23:31;;;;;;;11.43;5.10;;;;;;;;;;5046129;28;20114;-73
2023/06/08 10:25:58;;;;;;;7.13;3.75;;;;;;;;;;5044794;28;20029;-74
2023/06/08 10:28:24;;;;;;;14.32;5.88;;;;;;;;;;5051801;28;20032;-73
2023/06/08 10:30:50;;;;;;;8.75;3.42;;;;;;;;;;5051907;28;20079;-74
2023/06/08 10:33:20;;;;;;;12.13;5.18;;;;;;;;;;5051536;28;20056;-73
2023/06/08 10:35:46;;;;;;;;;;;;;;;;;;5038893;28;20065;-74
2023/06/08 10:38:13;;;;;;;8.55;3.85;;;;;;;;;;5033716;28;19951;-74
2023/06/08 10:40:50;;;;;;;8.40;3.60;;;;;;;;;;5045569;28;20036;-75
2023/06/08 10:43:17;;;;;;;7.82;4.28;;;;;;;;;;5046753;28;20059;-74
2023/06/08 10:45:46;;;;;;;7.55;4.25;;;;;;;;;;5049866;28;20033;-73
2023/06/08 10:48:16;;;;;;;8.98;4.70;;;;;;;;;;5048162;28;20040;-75
2023/06/08 10:50:42;;;;;;;;;;;;;;;;;;5050519;28;20139;-74
2023/06/08 10:53:08;;;;;;;11.20;3.60;;;;;;;;;;5050198;28;20398;-75
2023/06/08 10:55:35;;;;;;;11.57;6.10;;;;;;;;;;5051694;28;20501;-78
2023/06/08 10:58:05;;;;;;;8.40;4.00;;;;;;;;;;5051203;28;20028;-75
2023/06/08 11:00:42;;;;;;;7.07;3.95;;;;;;;;;;5051010;28;20029;-75
2023/06/08 11:03:08;;;;;;;9.95;3.85;;;;;;;;;;5049975;28;20086;-74
2023/06/08 11:05:35;;;;;;;8.32;4.15;;;;;;;;;;5051417;28;20640;-74
2023/06/08 11:08:02;;;;;;;10.82;3.58;;;;;;;;;;5048038;28;20456;-74
2023/06/08 11:10:30;;;;;;;7.28;3.47;;;;;;;;;;5045022;28;20048;-73
2023/06/08 11:13:04;;;;;;;11.52;3.85;;;;;;;;;;5042981;28;20031;-73
2023/06/08 11:15:31;;;;;;;10.68;4.97;;;;;;;;;;5045216;28;20074;-74
2023/06/08 11:17:57;;;;;;;8.75;4.47;;;;;;;;;;5051056;28;20455;-74
2023/06/08 11:20:26;;;;;;;9.43;3.97;;;;;;;;;;5050948;28;20445;-73
2023/06/08 11:22:53;;;;;;;11.32;3.35;;;;;;;;;;5051139;28;20040;-73
2023/06/08 11:25:20;;;;;;;10.48;5.13;;;;;;;;;;5050654;28;20559;-72
2023/06/08 11:27:46;;;;;;;12.32;5.88;;;;;;;;;;5050740;28;20024;-73
2023/06/08 11:30:18;;;;;;;8.68;3.30;;;;;;;;;;5050676;28;20032;-74
2023/06/08 11:32:46;;;;;;;6.05;2.92;;;;;;;;;;5050629;28;20024;-73
2023/06/08 11:35:12;;;;;;;11.23;5.70;;;;;;;;;;5050110;28;20115;-73
2023/06/08 11:37:41;;;;;;;10.73;4.75;;;;;;;;;;5049637;28;20116;-73
2023/06/08 11:40:11;;;;;;;8.48;4.93;;;;;;;;;;5048538;28;20033;-75
2023/06/08 11:42:40;;;;;;;8.50;3.72;;;;;;;;;;5048179;28;20087;-74
2023/06/08 11:45:07;;;;;;;6.60;2.80;;;;;;;;;;5049430;28;20120;-74
2023/06/08 11:47:34;;;;;;;9.50;3.42;;;;;;;;;;5050189;28;20024;-74
2023/06/08 11:50:01;;;;;;;10.30;3.42;;;;;;;;;;5049567;28;20052;-73
2023/06/08 11:52:28;;;;;;;7.75;3.60;;;;;;;;;;5044625;28;20956;-74
2023/06/08 11:54:55;;;;;;;7.63;3.28;;;;;;;;;;5049216;28;20029;-74
2023/06/08 11:57:21;;;;;;;6.78;3.25;;;;;;;;;;5047823;28;20033;-73
2023/06/08 11:59:49;;;;;;;8.48;3.50;;;;;;;;;;5044447;28;20056;-74
2023/06/08 12:02:21;;;;;;;8.70;3.67;;;;;;;;;;5049025;28;20037;-73
2023/06/08 12:04:47;;;;;;;8.13;3.60;;;;;;;;;;5048669;28;20099;-73
2023/06/08 12:07:14;;;;;;;8.02;2.85;;;;;;;;;;5035822;28;20380;-73
2023/06/08 12:09:47;;;;;;;5.47;3.30;;;;;;;;;;5048953;28;20024;-74
2023/06/08 12:12:13;;;;;;;8.73;3.45;;;;;;;;;;5049202;28;20056;-73
2023/06/08 12:14:46;;;;;;;6.78;2.85;;;;;;;;;;5049186;28;20028;-74
2023/06/08 12:17:15;;;;;;;7.85;3.13;;;;;;;;;;5049736;28;20021;-73
2023/06/08 12:19:47;;;;;;;6.47;3.28;;;;;;;;;;5049240;28;20029;-72
2023/06/08 12:22:16;;;;;;;7.00;3.10;;;;;;;;;;5048878;28;20114;-74
2023/06/08 12:24:42;;;;;;;7.13;3.60;;;;;;;;;;5044698;28;20090;-74
2023/06/08 12:27:08;;;;;;;7.63;3.58;;;;;;;;;;5048771;28;20036;-72
2023/06/08 12:29:36;;;;;;;5.65;3.50;;;;;;;;;;5048414;28;20102;-73
2023/06/08 12:32:02;;;;;;;6.10;3.20;;;;;;;;;;5049012;28;20119;-72
2023/06/08 12:34:28;;;;;;;6.15;2.58;;;;;;;;;;5049142;28;20052;-73
2023/06/08 12:36:54;;;;;;;7.00;3.65;;;;;;;;;;5048540;28;20045;-72
2023/06/08 12:39:21;;;;;;;8.05;3.50;;;;;;;;;;5047668;28;20501;-75
2023/06/08 12:41:47;;;;;;;5.95;3.28;;;;;;;;;;5046401;28;20120;-74
2023/06/08 12:44:13;;;;;;;6.18;3.25;;;;;;;;;;5044854;28;20021;-72
2023/06/08 12:46:40;;;;;;;5.47;2.42;;;;;;;;;;5049305;28;20028;-72
2023/06/08 12:49:06;;;;;;;6.65;3.83;;;;;;;;;;5045432;28;20033;-73
2023/06/08 12:51:32;;;;;;;6.78;3.38;;;;;;;;;;5035860;28;20104;-72
2023/06/08 12:53:59;;;;;;;5.93;3.08;;;;;;;;;;5045460;28;20123;-73
2023/06/08 12:56:25;;;;;;;5.22;2.75;;;;;;;;;;5047575;28;20033;-74
2023/06/08 12:58:51;;;;;;;6.07;2.85;;;;;;;;;;5047209;28;20021;-74
2023/06/08 13:01:19;;;;;;;7.50;3.78;;;;;;;;;;5047956;28;20029;-73
2023/06/08 13:03:45;;;;;;;7.88;3.63;;;;;;;;;;5046007;28;20474;-72
2023/06/08 13:06:11;;;;;;;6.00;3.33;;;;;;;;;;5046598;28;20534;-74
2023/06/08 13:08:37;;;;;;;6.07;3.22;;;;;;;;;;5051285;28;20379;-74
2023/06/08 13:11:04;;;;;;;9.45;3.67;;;;;;;;;;5045517;28;20029;-72
2023/06/08 13:13:30;;;;;;;4.53;2.58;;;;;;;;;;5049592;28;20155;-74
2023/06/08 13:15:58;;;;;;;7.45;3.60;;;;;;;;;;5053113;28;20068;-72
2023/06/08 13:18:24;;;;;;;5.90;3.17;;;;;;;;;;5053125;28;20402;-75
2023/06/08 13:20:53;;;;;;;6.70;3.05;;;;;;;;;;5052222;28;20021;-72
2023/06/08 13:23:20;;;;;;;5.10;3.30;;;;;;;;;;5053269;28;20049;-73
2023/06/08 13:25:46;;;;;;;5.82;3.78;;;;;;;;;;5049382;28;20065;-72
2023/06/08 13:28:12;;;;;;;7.18;3.75;;;;;;;;;;5050767;28;20053;-73
2023/06/08 13:30:39;;;;;;;5.88;3.20;;;;;;;;;;5052557;28;20029;-73
2023/06/08 13:33:05;;;;;;;8.18;3.03;;;;;;;;;;5053072;28;20017;-73
2023/06/08 13:35:32;;;;;;;6.35;3.13;;;;;;;;;;5052846;28;20040;-72
2023/06/08 13:37:58;;;;;;;9.70;3.88;;;;;;;;;;5052741;28;20035;-72
2023/06/08 13:40:24;;;;;;;9.43;3.88;;;;;;;;;;5052753;28;20509;-73
2023/06/08 13:42:50;;;;;;;6.18;3.50;;;;;;;;;;5052330;28;20109;-72
2023/06/08 13:45:18;;;;;;;7.30;3.63;;;;;;;;;;5052717;28;20017;-72
2023/06/08 13:47:44;;;;;;;11.45;4.55;;;;;;;;;;5052499;28;20124;-72
2023/06/08 13:50:11;;;;;;;9.20;4.32;;;;;;;;;;5052072;28;20518;-72
2023/06/08 13:52:37;;;;;;;8.95;3.70;;;;;;;;;;5047178;28;20026;-72
2023/06/08 13:55:03;;;;;;;5.93;3.33;;;;;;;;;;5043471;28;20314;-73
2023/06/08 13:57:29;;;;;;;5.88;3.33;;;;;;;;;;5051037;28;20478;-72
2023/06/08 13:59:55;;;;;;;8.73;3.35;;;;;;;;;;5041900;28;20032;-72
2023/06/08 14:02:21;;;;;;;5.45;3.05;;;;;;;;;;5050096;28;20029;-72
2023/06/08 14:04:47;;;;;;;7.30;3.58;;;;;;;;;;5051559;28;20087;-73
2023/06/08 14:07:13;;;;;;;6.65;3.78;;;;;;;;;;5051782;28;20029;-73
2023/06/08 14:09:40;;;;;;;8.75;3.38;;;;;;;;;;5052280;28;20040;-73
2023/06/08 14:12:07;;;;;;;5.32;3.20;;;;;;;;;;5049364;28;20017;-74
2023/06/08 14:14:33;;;;;;;6.70;3.53;;;;;;;;;;5048304;28;20375;-73
2023/06/08 14:16:59;;;;;;;6.75;4.20;;;;;;;;;;5045675;28;20048;-73
2023/06/08 14:19:25;;;;;;;9.95;4.30;;;;;;;;;;5051309;28;20062;-73
2023/06/08 14:21:51;;;;;;;5.85;3.17;;;;;;;;;;5050486;28;20056;-73
2023/06/08 14:24:17;;;;;;;6.40;4.35;;;;;;;;;;5052363;28;20489;-73
2023/06/08 14:26:43;;;;;;;8.73;4.15;;;;;;;;;;5051920;28;20025;-73
2023/06/08 14:29:09;;;;;;;7.88;3.40;;;;;;;;;;5041542;28;20159;-74
2023/06/08 14:31:35;;;;;;;7.97;3.63;;;;;;;;;;5051185;28;20127;-73